sensor_id;sensor_type;location;lat;lon;timestamp;pressure;altitude;pressure_sealevel;temperature;humidity
75868;BME280;64515;51.446;7.578;2022-11-02T00:00:38;100337.84;;;21.22;55.02
75868;BME280;64515;51.446;7.578;2022-11-02T00:03:03;100351.44;;;21.22;55.09
75868;BME280;64515;51.446;7.578;2022-11-02T00:05:28;100345.25;;;21.20;54.98
75868;BME280;64515;51.446;7.578;2022-11-02T00:07:55;100351.66;;;21.19;55.04
75868;BME280;64515;51.446;7.578;2022-11-02T00:10:20;100337.09;;;21.20;55.00
75868;BME280;64515;51.446;7.578;2022-11-02T00:12:46;100324.47;;;21.19;54.97
75868;BME280;64515;51.446;7.578;2022-11-02T00:15:12;100329.91;;;21.19;54.93
75868;BME280;64515;51.446;7.578;2022-11-02T00:17:37;100335.56;;;21.15;55.11
75868;BME280;64515;51.446;7.578;2022-11-02T00:20:03;100325.56;;;21.16;55.13
75868;BME280;64515;51.446;7.578;2022-11-02T00:22:29;100324.03;;;21.12;55.13
75868;BME280;64515;51.446;7.578;2022-11-02T00:24:55;100320.34;;;21.13;55.02
75868;BME280;64515;51.446;7.578;2022-11-02T00:27:21;100329.47;;;21.12;55.17
75868;BME280;64515;51.446;7.578;2022-11-02T00:29:46;100320.34;;;21.13;55.04
75868;BME280;64515;51.446;7.578;2022-11-02T00:32:12;100319.50;;;21.12;55.14
75868;BME280;64515;51.446;7.578;2022-11-02T00:34:37;100316.00;;;21.10;55.30
75868;BME280;64515;51.446;7.578;2022-11-02T00:37:03;100308.81;;;21.09;55.29
75868;BME280;64515;51.446;7.578;2022-11-02T00:39:28;100316.00;;;21.10;55.20
75868;BME280;64515;51.446;7.578;2022-11-02T00:41:53;100305.13;;;21.10;55.30
75868;BME280;64515;51.446;7.578;2022-11-02T00:44:18;100314.25;;;21.09;55.18
75868;BME280;64515;51.446;7.578;2022-11-02T00:46:43;100312.53;;;21.08;55.29
75868;BME280;64515;51.446;7.578;2022-11-02T00:49:08;100289.94;;;21.08;55.15
75868;BME280;64515;51.446;7.578;2022-11-02T00:51:33;100323.63;;;21.05;55.31
75868;BME280;64515;51.446;7.578;2022-11-02T00:53:59;100334.28;;;21.08;55.19
75868;BME280;64515;51.446;7.578;2022-11-02T00:56:24;100307.09;;;21.08;55.17
75868;BME280;64515;51.446;7.578;2022-11-02T00:58:49;100327.22;;;21.06;55.30
75868;BME280;64515;51.446;7.578;2022-11-02T01:01:14;100323.50;;;21.07;55.17
75868;BME280;64515;51.446;7.578;2022-11-02T01:03:39;100308.94;;;21.08;55.26
75868;BME280;64515;51.446;7.578;2022-11-02T01:06:09;100323.63;;;21.05;55.38
75868;BME280;64515;51.446;7.578;2022-11-02T01:08:34;100323.63;;;21.05;55.20
75868;BME280;64515;51.446;7.578;2022-11-02T01:11:12;100322.75;;;21.05;55.25
75868;BME280;64515;51.446;7.578;2022-11-02T01:13:38;100319.19;;;21.04;55.37
75868;BME280;64515;51.446;7.578;2022-11-02T01:16:03;100315.38;;;21.07;55.16
75868;BME280;64515;51.446;7.578;2022-11-02T01:18:29;100323.63;;;21.05;55.17
75868;BME280;64515;51.446;7.578;2022-11-02T01:20:55;100323.84;;;21.02;55.35
75868;BME280;64515;51.446;7.578;2022-11-02T01:23:20;100320.38;;;21.00;55.36
75868;BME280;64515;51.446;7.578;2022-11-02T01:25:45;100321.38;;;20.99;55.49
75868;BME280;64515;51.446;7.578;2022-11-02T01:28:11;100316.91;;;20.98;55.47
75868;BME280;64515;51.446;7.578;2022-11-02T01:30:37;100320.59;;;20.97;55.56
75868;BME280;64515;51.446;7.578;2022-11-02T01:33:03;100316.91;;;20.98;55.32
75868;BME280;64515;51.446;7.578;2022-11-02T01:35:29;100320.59;;;20.97;55.43
75868;BME280;64515;51.446;7.578;2022-11-02T01:37:54;100316.13;;;20.96;55.48
75868;BME280;64515;51.446;7.578;2022-11-02T01:40:19;100318.00;;;20.95;55.54
75868;BME280;64515;51.446;7.578;2022-11-02T01:42:44;100313.41;;;20.96;55.37
75868;BME280;64515;51.446;7.578;2022-11-02T01:45:09;100309.94;;;20.94;55.52
75868;BME280;64515;51.446;7.578;2022-11-02T01:47:37;100307.22;;;20.94;55.39
75868;BME280;64515;51.446;7.578;2022-11-02T01:50:09;100303.63;;;20.93;55.62
75868;BME280;64515;51.446;7.578;2022-11-02T01:52:37;100308.22;;;20.93;55.57
75868;BME280;64515;51.446;7.578;2022-11-02T01:57:31;100306.47;;;20.92;55.57
75868;BME280;64515;51.446;7.578;2022-11-02T02:00:03;100300.06;;;20.93;55.45
75868;BME280;64515;51.446;7.578;2022-11-02T02:02:29;100295.69;;;20.90;55.54
75868;BME280;64515;51.446;7.578;2022-11-02T02:05:00;100301.25;;;20.89;55.60
75868;BME280;64515;51.446;7.578;2022-11-02T02:07:26;100306.69;;;20.89;55.51
75868;BME280;64515;51.446;7.578;2022-11-02T02:09:52;100303.00;;;20.90;55.48
75868;BME280;64515;51.446;7.578;2022-11-02T02:12:18;100301.25;;;20.89;55.58
75868;BME280;64515;51.446;7.578;2022-11-02T02:14:43;100287.66;;;20.89;55.47
75868;BME280;64515;51.446;7.578;2022-11-02T02:17:13;100295.81;;;20.89;55.49
75868;BME280;64515;51.446;7.578;2022-11-02T02:30:29;100293.41;;;20.84;55.57
75868;BME280;64515;51.446;7.578;2022-11-02T02:33:03;100291.59;;;20.85;55.51
75868;BME280;64515;51.446;7.578;2022-11-02T02:35:34;100292.44;;;20.85;55.62
75868;BME280;64515;51.446;7.578;2022-11-02T02:38:05;100285.19;;;20.86;55.50
75868;BME280;64515;51.446;7.578;2022-11-02T02:40:35;100282.47;;;20.86;55.58
75868;BME280;64515;51.446;7.578;2022-11-02T02:43:05;100286.16;;;20.85;55.56
75868;BME280;64515;51.446;7.578;2022-11-02T02:45:34;100298.00;;;20.83;55.61
75868;BME280;64515;51.446;7.578;2022-11-02T02:48:11;100290.81;;;20.82;55.63
75868;BME280;64515;51.446;7.578;2022-11-02T02:50:58;100289.97;;;20.82;55.53
75868;BME280;64515;51.446;7.578;2022-11-02T02:53:29;100296.25;;;20.82;55.62
75868;BME280;64515;51.446;7.578;2022-11-02T02:55:57;100299.94;;;20.81;55.60
75868;BME280;64515;51.446;7.578;2022-11-02T02:58:24;100288.09;;;20.82;55.60
75868;BME280;64515;51.446;7.578;2022-11-02T03:00:50;100297.22;;;20.81;55.69
75868;BME280;64515;51.446;7.578;2022-11-02T03:03:18;100303.63;;;20.80;55.65
75868;BME280;64515;51.446;7.578;2022-11-02T03:05:53;100308.22;;;20.80;55.66
75868;BME280;64515;51.446;7.578;2022-11-02T03:08:19;100295.50;;;20.80;55.71
75868;BME280;64515;51.446;7.578;2022-11-02T03:10:46;100292.78;;;20.80;55.67
75868;BME280;64515;51.446;7.578;2022-11-02T03:16:13;100294.75;;;20.78;55.59
75868;BME280;64515;51.446;7.578;2022-11-02T03:18:52;100295.72;;;20.77;55.69
75868;BME280;64515;51.446;7.578;2022-11-02T03:23:47;100302.13;;;20.76;55.76
75868;BME280;64515;51.446;7.578;2022-11-02T03:31:28;100304.06;;;20.74;55.70
75868;BME280;64515;51.446;7.578;2022-11-02T03:36:45;100314.94;;;20.74;55.76
75868;BME280;64515;51.446;7.578;2022-11-02T03:39:12;100308.66;;;20.74;55.71
75868;BME280;64515;51.446;7.578;2022-11-02T03:41:41;100319.53;;;20.74;55.76
75868;BME280;64515;51.446;7.578;2022-11-02T03:44:12;100323.88;;;20.76;55.69
75868;BME280;64515;51.446;7.578;2022-11-02T03:46:39;100327.34;;;20.78;55.53
75868;BME280;64515;51.446;7.578;2022-11-02T03:49:06;100329.31;;;20.76;55.57
75868;BME280;64515;51.446;7.578;2022-11-02T03:51:32;100332.03;;;20.76;55.53
75868;BME280;64515;51.446;7.578;2022-11-02T03:56:34;100345.59;;;20.76;55.58
75868;BME280;64515;51.446;7.578;2022-11-02T03:59:01;100347.53;;;20.74;55.61
75868;BME280;64515;51.446;7.578;2022-11-02T04:01:26;100342.13;;;20.74;55.53
75868;BME280;64515;51.446;7.578;2022-11-02T04:03:53;100352.78;;;20.77;55.53
75868;BME280;64515;51.446;7.578;2022-11-02T04:06:18;100354.53;;;20.78;55.49
75868;BME280;64515;51.446;7.578;2022-11-02T04:08:44;100351.91;;;20.77;55.51
75868;BME280;64515;51.446;7.578;2022-11-02T04:11:10;100343.84;;;20.75;55.62
75868;BME280;64515;51.446;7.578;2022-11-02T04:13:54;100345.59;;;20.76;55.56
75868;BME280;64515;51.446;7.578;2022-11-02T04:16:38;100354.53;;;20.78;55.58
75868;BME280;64515;51.446;7.578;2022-11-02T04:19:03;100352.78;;;20.77;55.54
75868;BME280;64515;51.446;7.578;2022-11-02T04:21:47;100356.47;;;20.76;55.61
75868;BME280;64515;51.446;7.578;2022-11-02T04:24:32;100362.66;;;20.78;55.47
75868;BME280;64515;51.446;7.578;2022-11-02T04:27:16;100367.09;;;20.79;55.42
75868;BME280;64515;51.446;7.578;2022-11-02T04:29:41;100359.84;;;20.80;55.54
75868;BME280;64515;51.446;7.578;2022-11-02T04:32:06;100377.97;;;20.79;55.41
75868;BME280;64515;51.446;7.578;2022-11-02T04:34:31;100361.91;;;20.76;55.51
75868;BME280;64515;51.446;7.578;2022-11-02T04:36:57;100375.50;;;20.76;55.46
75868;BME280;64515;51.446;7.578;2022-11-02T04:39:22;100371.03;;;20.75;55.57
75868;BME280;64515;51.446;7.578;2022-11-02T04:41:47;100373.63;;;20.77;55.49
75868;BME280;64515;51.446;7.578;2022-11-02T04:44:12;100377.13;;;20.79;55.37
75868;BME280;64515;51.446;7.578;2022-11-02T04:46:38;100387.88;;;20.80;55.35
75868;BME280;64515;51.446;7.578;2022-11-02T04:49:04;100388.84;;;20.79;55.38
75868;BME280;64515;51.446;7.578;2022-11-02T04:51:30;100379.94;;;20.77;55.55
75868;BME280;64515;51.446;7.578;2022-11-02T04:53:56;100393.72;;;20.74;55.53
75868;BME280;64515;51.446;7.578;2022-11-02T04:56:22;100388.84;;;20.79;55.47
75868;BME280;64515;51.446;7.578;2022-11-02T04:58:48;100394.06;;;20.82;55.40
75868;BME280;64515;51.446;7.578;2022-11-02T05:01:14;100386.47;;;20.88;55.35
75868;BME280;64515;51.446;7.578;2022-11-02T05:03:40;100388.75;;;20.94;55.07
75868;BME280;64515;51.446;7.578;2022-11-02T05:06:05;100388.66;;;20.95;55.21
75868;BME280;64515;51.446;7.578;2022-11-02T05:08:30;100391.25;;;20.97;54.99
75868;BME280;64515;51.446;7.578;2022-11-02T05:10:56;100392.03;;;20.99;54.80
75868;BME280;64515;51.446;7.578;2022-11-02T05:13:22;100389.31;;;20.99;54.75
75868;BME280;64515;51.446;7.578;2022-11-02T05:15:47;100403.63;;;21.01;54.68
75868;BME280;64515;51.446;7.578;2022-11-02T05:18:13;100403.63;;;21.01;54.45
75868;BME280;64515;51.446;7.578;2022-11-02T05:20:38;100396.25;;;21.03;54.36
75868;BME280;64515;51.446;7.578;2022-11-02T05:23:03;100408.00;;;21.04;54.45
75868;BME280;64515;51.446;7.578;2022-11-02T05:25:30;100404.28;;;21.05;54.27
75868;BME280;64515;51.446;7.578;2022-11-02T05:27:55;100405.19;;;21.05;54.20
75868;BME280;64515;51.446;7.578;2022-11-02T05:30:20;100416.06;;;21.05;54.19
75868;BME280;64515;51.446;7.578;2022-11-02T05:32:45;100410.63;;;21.05;54.08
75868;BME280;64515;51.446;7.578;2022-11-02T05:35:10;100412.34;;;21.06;54.17
75868;BME280;64515;51.446;7.578;2022-11-02T05:37:35;100419.31;;;21.10;54.13
75868;BME280;64515;51.446;7.578;2022-11-02T05:40:01;100430.19;;;21.10;53.98
75868;BME280;64515;51.446;7.578;2022-11-02T05:42:26;100420.94;;;21.13;53.96
75868;BME280;64515;51.446;7.578;2022-11-02T05:44:51;100428.00;;;21.15;53.79
75868;BME280;64515;51.446;7.578;2022-11-02T05:47:16;100434.19;;;21.18;53.86
75868;BME280;64515;51.446;7.578;2022-11-02T05:49:41;100428.75;;;21.18;53.75
75868;BME280;64515;51.446;7.578;2022-11-02T05:52:06;100436.91;;;21.18;53.99
75868;BME280;64515;51.446;7.578;2022-11-02T05:54:32;100436.91;;;21.18;53.62
75868;BME280;64515;51.446;7.578;2022-11-02T05:56:57;100442.16;;;21.21;53.54
75868;BME280;64515;51.446;7.578;2022-11-02T05:59:22;100448.44;;;21.21;53.65
75868;BME280;64515;51.446;7.578;2022-11-02T06:01:47;100446.59;;;21.22;53.65
75868;BME280;64515;51.446;7.578;2022-11-02T06:04:12;100447.59;;;21.21;53.69
75868;BME280;64515;51.446;7.578;2022-11-02T06:06:37;100447.59;;;21.21;53.74
75868;BME280;64515;51.446;7.578;2022-11-02T06:09:03;100461.06;;;21.22;53.54
75868;BME280;64515;51.446;7.578;2022-11-02T06:11:28;100476.50;;;21.22;53.58
75868;BME280;64515;51.446;7.578;2022-11-02T06:13:53;100461.94;;;21.23;53.55
75868;BME280;64515;51.446;7.578;2022-11-02T06:16:18;100463.66;;;21.24;53.59
75868;BME280;64515;51.446;7.578;2022-11-02T06:18:43;100469.09;;;21.24;53.65
75868;BME280;64515;51.446;7.578;2022-11-02T06:21:09;100477.25;;;21.24;53.55
75868;BME280;64515;51.446;7.578;2022-11-02T06:23:34;100472.59;;;21.26;53.39
75868;BME280;64515;51.446;7.578;2022-11-02T06:26:00;100469.88;;;21.26;53.41
75868;BME280;64515;51.446;7.578;2022-11-02T06:28:26;100483.47;;;21.26;53.47
75868;BME280;64515;51.446;7.578;2022-11-02T06:30:51;100491.63;;;21.26;53.63
75868;BME280;64515;51.446;7.578;2022-11-02T06:33:17;100505.22;;;21.26;53.62
75868;BME280;64515;51.446;7.578;2022-11-02T06:35:49;100492.41;;;21.28;53.46
75868;BME280;64515;51.446;7.578;2022-11-02T06:38:15;100507.94;;;21.26;53.71
75868;BME280;64515;51.446;7.578;2022-11-02T06:40:40;100506.97;;;21.27;53.62
75868;BME280;64515;51.446;7.578;2022-11-02T06:43:06;100507.81;;;21.27;53.51
75868;BME280;64515;51.446;7.578;2022-11-02T06:45:31;100505.22;;;21.26;53.69
75868;BME280;64515;51.446;7.578;2022-11-02T06:47:56;100520.56;;;21.27;53.64
75868;BME280;64515;51.446;7.578;2022-11-02T06:50:21;100515.00;;;21.28;53.65
75868;BME280;64515;51.446;7.578;2022-11-02T06:52:48;100521.31;;;21.29;53.52
75868;BME280;64515;51.446;7.578;2022-11-02T06:55:14;100528.50;;;21.30;53.64
75868;BME280;64515;51.446;7.578;2022-11-02T06:57:39;100543.94;;;21.29;53.56
75868;BME280;64515;51.446;7.578;2022-11-02T07:00:06;100556.56;;;21.30;53.63
75868;BME280;64515;51.446;7.578;2022-11-02T07:02:32;100565.59;;;21.31;53.48
75868;BME280;64515;51.446;7.578;2022-11-02T07:04:57;100553.75;;;21.32;53.38
75868;BME280;64515;51.446;7.578;2022-11-02T07:07:22;100570.06;;;21.32;53.53
75868;BME280;64515;51.446;7.578;2022-11-02T07:09:47;100568.31;;;21.31;53.62
75868;BME280;64515;51.446;7.578;2022-11-02T07:12:13;100575.50;;;21.32;53.43
75868;BME280;64515;51.446;7.578;2022-11-02T07:14:38;100586.38;;;21.32;53.57
75868;BME280;64515;51.446;7.578;2022-11-02T07:17:03;100597.91;;;21.36;53.41
75868;BME280;64515;51.446;7.578;2022-11-02T07:19:28;100583.53;;;21.34;53.60
75868;BME280;64515;51.446;7.578;2022-11-02T07:21:53;100590.72;;;21.35;53.40
75868;BME280;64515;51.446;7.578;2022-11-02T07:24:19;100592.59;;;21.34;53.51
75868;BME280;64515;51.446;7.578;2022-11-02T07:26:46;100589.88;;;21.34;53.61
75868;BME280;64515;51.446;7.578;2022-11-02T07:29:11;100615.09;;;21.36;53.64
75868;BME280;64515;51.446;7.578;2022-11-02T07:31:37;100598.78;;;21.36;53.48
75868;BME280;64515;51.446;7.578;2022-11-02T07:34:02;100610.41;;;21.38;53.42
75868;BME280;64515;51.446;7.578;2022-11-02T07:36:27;100611.41;;;21.37;53.45
75868;BME280;64515;51.446;7.578;2022-11-02T07:38:52;100625.00;;;21.37;53.63
75868;BME280;64515;51.446;7.578;2022-11-02T07:41:17;100627.72;;;21.37;53.87
75868;BME280;64515;51.446;7.578;2022-11-02T07:43:43;100617.72;;;21.38;53.70
75868;BME280;64515;51.446;7.578;2022-11-02T07:46:08;100622.28;;;21.37;53.89
75868;BME280;64515;51.446;7.578;2022-11-02T07:48:33;100628.59;;;21.38;53.53
75868;BME280;64515;51.446;7.578;2022-11-02T07:50:59;100626.63;;;21.40;53.34
75868;BME280;64515;51.446;7.578;2022-11-02T07:53:24;100633.94;;;21.39;53.34
75868;BME280;64515;51.446;7.578;2022-11-02T07:55:50;100648.31;;;21.41;53.37
75868;BME280;64515;51.446;7.578;2022-11-02T07:58:15;100642.09;;;21.39;53.25
75868;BME280;64515;51.446;7.578;2022-11-02T08:00:40;100647.53;;;21.39;52.58
75868;BME280;64515;51.446;7.578;2022-11-02T08:03:06;100660.16;;;21.40;52.78
75868;BME280;64515;51.446;7.578;2022-11-02T08:05:33;100661.13;;;21.39;52.84
75868;BME280;64515;51.446;7.578;2022-11-02T08:08:05;100663.84;;;21.39;52.75
75868;BME280;64515;51.446;7.578;2022-11-02T08:10:31;100680.16;;;21.39;52.77
75868;BME280;64515;51.446;7.578;2022-11-02T08:12:56;100672.97;;;21.38;52.61
75868;BME280;64515;51.446;7.578;2022-11-02T08:15:22;100675.69;;;21.38;52.71
75868;BME280;64515;51.446;7.578;2022-11-02T08:17:57;100676.47;;;21.40;52.84
75868;BME280;64515;51.446;7.578;2022-11-02T08:20:23;100676.47;;;21.40;52.56
75868;BME280;64515;51.446;7.578;2022-11-02T08:22:48;100687.34;;;21.40;52.71
75868;BME280;64515;51.446;7.578;2022-11-02T08:25:13;100685.59;;;21.39;53.01
75868;BME280;64515;51.446;7.578;2022-11-02T08:27:38;100683.66;;;21.41;52.70
75868;BME280;64515;51.446;7.578;2022-11-02T08:30:03;100686.38;;;21.41;52.67
75868;BME280;64515;51.446;7.578;2022-11-02T08:32:29;100689.09;;;21.41;52.68
75868;BME280;64515;51.446;7.578;2022-11-02T08:34:54;100694.53;;;21.41;52.80
75868;BME280;64515;51.446;7.578;2022-11-02T08:37:19;100690.84;;;21.42;52.79
75868;BME280;64515;51.446;7.578;2022-11-02T08:39:44;100691.69;;;21.43;52.69
75868;BME280;64515;51.446;7.578;2022-11-02T08:42:09;100706.16;;;21.43;52.90
75868;BME280;64515;51.446;7.578;2022-11-02T08:44:34;100704.03;;;21.49;53.20
75868;BME280;64515;51.446;7.578;2022-11-02T08:47:00;100696.06;;;21.45;52.29
75868;BME280;64515;51.446;7.578;2022-11-02T08:49:25;100710.63;;;21.44;52.54
75868;BME280;64515;51.446;7.578;2022-11-02T08:51:50;100705.41;;;21.41;51.60
75868;BME280;64515;51.446;7.578;2022-11-02T08:54:15;100716.28;;;21.41;51.73
75868;BME280;64515;51.446;7.578;2022-11-02T08:56:40;100707.16;;;21.42;51.09
75868;BME280;64515;51.446;7.578;2022-11-02T08:59:05;100712.59;;;21.42;51.27
75868;BME280;64515;51.446;7.578;2022-11-02T09:01:31;100721.50;;;21.44;52.00
75868;BME280;64515;51.446;7.578;2022-11-02T09:03:56;100719.75;;;21.43;51.09
75868;BME280;64515;51.446;7.578;2022-11-02T09:06:21;100726.19;;;21.42;51.20
75868;BME280;64515;51.446;7.578;2022-11-02T09:08:46;100728.94;;;21.42;50.88
75868;BME280;64515;51.446;7.578;2022-11-02T09:11:12;100736.97;;;21.44;52.09
75868;BME280;64515;51.446;7.578;2022-11-02T09:13:37;100741.53;;;21.43;52.73
75868;BME280;64515;51.446;7.578;2022-11-02T09:16:02;100744.16;;;21.45;52.85
75868;BME280;64515;51.446;7.578;2022-11-02T09:18:28;100741.53;;;21.43;52.24
75868;BME280;64515;51.446;7.578;2022-11-02T09:20:53;100740.47;;;21.46;52.19
75868;BME280;64515;51.446;7.578;2022-11-02T09:23:19;100752.31;;;21.45;50.77
75868;BME280;64515;51.446;7.578;2022-11-02T09:25:44;100747.75;;;21.45;50.78
75868;BME280;64515;51.446;7.578;2022-11-02T09:28:09;100745.03;;;21.45;50.60
75868;BME280;64515;51.446;7.578;2022-11-02T09:30:35;100755.91;;;21.45;50.51
75868;BME280;64515;51.446;7.578;2022-11-02T09:33:01;100757.84;;;21.43;51.02
75868;BME280;64515;51.446;7.578;2022-11-02T09:35:27;100768.53;;;21.46;52.37
75868;BME280;64515;51.446;7.578;2022-11-02T09:37:52;100765.81;;;21.46;51.61
75868;BME280;64515;51.446;7.578;2022-11-02T09:40:22;100759.41;;;21.47;50.76
75868;BME280;64515;51.446;7.578;2022-11-02T09:42:54;100759.41;;;21.47;50.56
75868;BME280;64515;51.446;7.578;2022-11-02T09:45:22;100766.59;;;21.49;50.17
75868;BME280;64515;51.446;7.578;2022-11-02T09:48:22;100778.31;;;21.49;50.29
75868;BME280;64515;51.446;7.578;2022-11-02T09:50:44;100782.91;;;21.49;50.40
75868;BME280;64515;51.446;7.578;2022-11-02T09:53:13;100779.22;;;21.50;50.08
75868;BME280;64515;51.446;7.578;2022-11-02T09:55:44;100784.66;;;21.50;51.85
75868;BME280;64515;51.446;7.578;2022-11-02T09:58:11;100786.59;;;21.47;51.93
75868;BME280;64515;51.446;7.578;2022-11-02T10:00:39;100777.47;;;21.49;51.20
75868;BME280;64515;51.446;7.578;2022-11-02T10:05:51;100790.28;;;21.46;51.31
75868;BME280;64515;51.446;7.578;2022-11-02T10:08:24;100776.81;;;21.45;51.38
75868;BME280;64515;51.446;7.578;2022-11-02T10:10:58;100788.53;;;21.45;50.40
75868;BME280;64515;51.446;7.578;2022-11-02T10:15:54;100789.31;;;21.47;50.23
75868;BME280;64515;51.446;7.578;2022-11-02T10:18:22;100801.16;;;21.46;50.23
75868;BME280;64515;51.446;7.578;2022-11-02T10:20:49;100794.66;;;21.49;50.86
75868;BME280;64515;51.446;7.578;2022-11-02T10:25:46;100786.59;;;21.47;49.96
75868;BME280;64515;51.446;7.578;2022-11-02T10:28:17;100786.50;;;21.49;51.26
75868;BME280;64515;51.446;7.578;2022-11-02T10:30:43;100780.19;;;21.49;51.04
75868;BME280;64515;51.446;7.578;2022-11-02T10:33:18;100781.16;;;21.47;50.71
75868;BME280;64515;51.446;7.578;2022-11-02T10:35:52;100800.31;;;21.46;50.40
75868;BME280;64515;51.446;7.578;2022-11-02T10:38:23;100797.66;;;21.44;50.73
75868;BME280;64515;51.446;7.578;2022-11-02T10:53:31;100803.09;;;21.44;49.92
75868;BME280;64515;51.446;7.578;2022-11-02T10:58:23;100816.72;;;21.44;49.78
75868;BME280;64515;51.446;7.578;2022-11-02T11:01:00;100809.44;;;21.45;49.72
75868;BME280;64515;51.446;7.578;2022-11-02T11:03:27;100812.06;;;21.46;49.54
75868;BME280;64515;51.446;7.578;2022-11-02T11:05:54;100812.06;;;21.46;49.56
75868;BME280;64515;51.446;7.578;2022-11-02T11:08:25;100806.59;;;21.46;49.50
75868;BME280;64515;51.446;7.578;2022-11-02T11:10:52;100805.63;;;21.47;50.64
75868;BME280;64515;51.446;7.578;2022-11-02T11:13:19;100812.06;;;21.46;50.28
75868;BME280;64515;51.446;7.578;2022-11-02T11:15:46;100809.22;;;21.48;50.10
75868;BME280;64515;51.446;7.578;2022-11-02T11:18:16;100811.88;;;21.50;50.26
75868;BME280;64515;51.446;7.578;2022-11-02T11:20:43;100810.00;;;21.50;49.80
75868;BME280;64515;51.446;7.578;2022-11-02T11:25:34;100817.31;;;21.50;50.21
75868;BME280;64515;51.446;7.578;2022-11-02T11:27:59;100823.50;;;21.52;50.66
75868;BME280;64515;51.446;7.578;2022-11-02T11:30:28;100815.56;;;21.49;50.69
75868;BME280;64515;51.446;7.578;2022-11-02T11:32:54;100813.59;;;21.51;50.42
75868;BME280;64515;51.446;7.578;2022-11-02T11:35:20;100826.22;;;21.52;49.59
75868;BME280;64515;51.446;7.578;2022-11-02T11:37:50;100824.38;;;21.52;49.68
75868;BME280;64515;51.446;7.578;2022-11-02T11:40:18;100817.09;;;21.53;49.69
75868;BME280;64515;51.446;7.578;2022-11-02T11:42:44;100832.44;;;21.54;49.45
75868;BME280;64515;51.446;7.578;2022-11-02T11:45:18;100826.22;;;21.52;49.51
75868;BME280;64515;51.446;7.578;2022-11-02T11:47:45;100823.50;;;21.52;49.75
75868;BME280;64515;51.446;7.578;2022-11-02T11:50:15;100826.22;;;21.52;50.26
75868;BME280;64515;51.446;7.578;2022-11-02T11:52:41;100820.78;;;21.52;50.51
75868;BME280;64515;51.446;7.578;2022-11-02T11:55:20;100809.69;;;21.55;50.92
75868;BME280;64515;51.446;7.578;2022-11-02T11:57:46;100822.53;;;21.53;50.90
75868;BME280;64515;51.446;7.578;2022-11-02T12:00:28;100840.59;;;21.54;50.99
75868;BME280;64515;51.446;7.578;2022-11-02T12:03:00;100832.63;;;21.51;50.88
75868;BME280;64515;51.446;7.578;2022-11-02T12:05:26;100821.84;;;21.49;50.75
75868;BME280;64515;51.446;7.578;2022-11-02T12:13:08;100811.63;;;21.53;51.03
75868;BME280;64515;51.446;7.578;2022-11-02T12:20:58;100827.97;;;21.53;50.83
75868;BME280;64515;51.446;7.578;2022-11-02T12:28:53;100808.66;;;21.57;50.66
75868;BME280;64515;51.446;7.578;2022-11-02T12:31:43;100804.06;;;21.58;50.66
75868;BME280;64515;51.446;7.578;2022-11-02T12:36:57;100798.25;;;21.64;51.04
75868;BME280;64515;51.446;7.578;2022-11-02T12:42:01;100786.94;;;21.70;50.79
75868;BME280;64515;51.446;7.578;2022-11-02T12:44:37;100787.81;;;21.71;50.99
75868;BME280;64515;51.446;7.578;2022-11-02T12:49:39;100783.25;;;21.71;50.98
75868;BME280;64515;51.446;7.578;2022-11-02T12:52:10;100786.94;;;21.70;51.08
75868;BME280;64515;51.446;7.578;2022-11-02T12:54:52;100788.28;;;21.77;50.83
75868;BME280;64515;51.446;7.578;2022-11-02T12:57:20;100788.28;;;21.77;50.94
75868;BME280;64515;51.446;7.578;2022-11-02T12:59:48;100799.56;;;21.71;50.80
75868;BME280;64515;51.446;7.578;2022-11-02T13:02:20;100807.81;;;21.70;50.51
75868;BME280;64515;51.446;7.578;2022-11-02T13:07:14;100806.75;;;21.72;50.25
75868;BME280;64515;51.446;7.578;2022-11-02T13:09:46;100795.84;;;21.72;50.74
75868;BME280;64515;51.446;7.578;2022-11-02T13:12:15;100794.13;;;21.71;50.68
75868;BME280;64515;51.446;7.578;2022-11-02T13:14:42;100801.53;;;21.69;50.25
75868;BME280;64515;51.446;7.578;2022-11-02T13:17:24;100795.00;;;21.72;50.06
75868;BME280;64515;51.446;7.578;2022-11-02T13:19:52;100802.06;;;21.74;50.84
75868;BME280;64515;51.446;7.578;2022-11-02T13:22:19;100788.81;;;21.83;50.73
75868;BME280;64515;51.446;7.578;2022-11-02T13:24:46;100792.00;;;21.89;50.54
75868;BME280;64515;51.446;7.578;2022-11-02T13:27:34;100788.09;;;21.93;50.39
75868;BME280;64515;51.446;7.578;2022-11-02T13:30:02;100783.50;;;21.94;50.39
75868;BME280;64515;51.446;7.578;2022-11-02T13:32:34;100787.97;;;21.95;50.43
75868;BME280;64515;51.446;7.578;2022-11-02T13:35:02;100794.63;;;21.91;50.20
75868;BME280;64515;51.446;7.578;2022-11-02T13:37:37;100795.47;;;21.91;50.39
75868;BME280;64515;51.446;7.578;2022-11-02T13:53:53;100777.31;;;21.92;50.13
75868;BME280;64515;51.446;7.578;2022-11-02T13:56:21;100780.13;;;21.90;48.46
75868;BME280;64515;51.446;7.578;2022-11-02T13:58:48;100780.25;;;21.89;48.33
75868;BME280;64515;51.446;7.578;2022-11-02T14:01:17;100775.78;;;21.88;48.13
75868;BME280;64515;51.446;7.578;2022-11-02T14:06:27;100783.94;;;21.88;48.30
75868;BME280;64515;51.446;7.578;2022-11-02T14:08:55;100785.91;;;21.86;48.73
75868;BME280;64515;51.446;7.578;2022-11-02T14:12:09;100780.25;;;21.89;49.24
75868;BME280;64515;51.446;7.578;2022-11-02T14:21:45;100794.81;;;21.88;49.03
75868;BME280;64515;51.446;7.578;2022-11-02T14:27:02;100780.66;;;21.83;48.69
75868;BME280;64515;51.446;7.578;2022-11-02T14:40:09;100768.25;;;21.78;49.93
75868;BME280;64515;51.446;7.578;2022-11-02T14:47:39;100773.78;;;21.77;49.10
75868;BME280;64515;51.446;7.578;2022-11-02T14:52:36;100776.31;;;21.80;49.22
75868;BME280;64515;51.446;7.578;2022-11-02T14:55:03;100760.84;;;21.81;49.25
75868;BME280;64515;51.446;7.578;2022-11-02T14:59:56;100758.88;;;21.83;49.39